sensor_id;sensor_type;location;lat;lon;timestamp;pressure;altitude;pressure_sealevel;temperature;humidity
8705;BME280;4389;41.932;25.904;2023-05-03T00:00:05;101147.50;;;9.59;87.23
8705;BME280;4389;41.932;25.904;2023-05-03T00:02:32;101142.03;;;9.50;87.13
8705;BME280;4389;41.932;25.904;2023-05-03T00:05:01;101138.50;;;9.38;87.28
8705;BME280;4389;41.932;25.904;2023-05-03T00:07:29;101137.97;;;9.33;87.72
8705;BME280;4389;41.932;25.904;2023-05-03T00:09:56;101131.19;;;9.18;88.03
8705;BME280;4389;41.932;25.904;2023-05-03T00:12:23;101130.69;;;9.13;88.67
8705;BME280;4389;41.932;25.904;2023-05-03T00:14:50;101132.53;;;9.00;88.87
8705;BME280;4389;41.932;25.904;2023-05-03T00:17:17;101131.00;;;9.09;89.32
8705;BME280;4389;41.932;25.904;2023-05-03T00:19:44;101135.06;;;9.25;88.98
8705;BME280;4389;41.932;25.904;2023-05-03T00:22:12;101132.50;;;9.36;88.78
8705;BME280;4389;41.932;25.904;2023-05-03T00:24:39;101135.69;;;9.52;87.95
8705;BME280;4389;41.932;25.904;2023-05-03T00:27:06;101142.97;;;9.38;88.05
8705;BME280;4389;41.932;25.904;2023-05-03T00:29:32;101140.63;;;9.33;88.54
8705;BME280;4389;41.932;25.904;2023-05-03T00:31:59;101145.00;;;9.45;87.98
8705;BME280;4389;41.932;25.904;2023-05-03T00:34:26;101153.00;;;9.56;87.01
8705;BME280;4389;41.932;25.904;2023-05-03T00:36:53;101154.84;;;9.67;86.47
8705;BME280;4389;41.932;25.904;2023-05-03T00:39:21;101160.06;;;9.79;85.46
8705;BME280;4389;41.932;25.904;2023-05-03T00:41:48;101148.25;;;9.96;84.68
8705;BME280;4389;41.932;25.904;2023-05-03T00:44:15;101155.09;;;9.98;84.96
8705;BME280;4389;41.932;25.904;2023-05-03T00:46:42;101147.94;;;10.11;84.42
8705;BME280;4389;41.932;25.904;2023-05-03T00:49:09;101146.03;;;10.13;85.31
8705;BME280;4389;41.932;25.904;2023-05-03T00:51:36;101134.00;;;10.09;85.60
8705;BME280;4389;41.932;25.904;2023-05-03T00:54:03;101140.25;;;10.08;85.80
8705;BME280;4389;41.932;25.904;2023-05-03T00:56:31;101147.50;;;10.28;84.83
8705;BME280;4389;41.932;25.904;2023-05-03T00:58:59;101139.81;;;10.36;83.73
8705;BME280;4389;41.932;25.904;2023-05-03T01:01:27;101147.41;;;10.41;82.87
8705;BME280;4389;41.932;25.904;2023-05-03T01:03:55;101151.38;;;10.57;82.21
8705;BME280;4389;41.932;25.904;2023-05-03T01:06:30;101150.91;;;10.52;81.78
8705;BME280;4389;41.932;25.904;2023-05-03T01:09:02;101147.53;;;10.50;82.53
8705;BME280;4389;41.932;25.904;2023-05-03T01:11:37;101140.53;;;10.38;82.89
8705;BME280;4389;41.932;25.904;2023-05-03T01:14:14;101143.19;;;10.27;84.07
8705;BME280;4389;41.932;25.904;2023-05-03T01:16:49;101137.72;;;10.07;86.17
8705;BME280;4389;41.932;25.904;2023-05-03T01:19:25;101138.78;;;10.04;88.30
8705;BME280;4389;41.932;25.904;2023-05-03T01:21:58;101139.47;;;9.95;89.09
8705;BME280;4389;41.932;25.904;2023-05-03T01:24:31;101139.47;;;9.95;89.33
8705;BME280;4389;41.932;25.904;2023-05-03T01:27:01;101131.06;;;10.01;87.45
8705;BME280;4389;41.932;25.904;2023-05-03T01:29:28;101132.25;;;9.97;87.60
8705;BME280;4389;41.932;25.904;2023-05-03T01:31:59;101125.13;;;9.87;87.19
8705;BME280;4389;41.932;25.904;2023-05-03T01:34:31;101123.59;;;9.95;87.17
8705;BME280;4389;41.932;25.904;2023-05-03T01:36:59;101121.19;;;9.92;86.48
8705;BME280;4389;41.932;25.904;2023-05-03T01:39:32;101112.75;;;9.87;88.00
8705;BME280;4389;41.932;25.904;2023-05-03T01:42:03;101113.47;;;9.78;87.89
8705;BME280;4389;41.932;25.904;2023-05-03T01:44:31;101117.19;;;9.76;87.90
8705;BME280;4389;41.932;25.904;2023-05-03T01:47:00;101114.88;;;9.71;87.95
8705;BME280;4389;41.932;25.904;2023-05-03T01:49:27;101111.50;;;9.69;87.27
8705;BME280;4389;41.932;25.904;2023-05-03T01:51:54;101109.34;;;9.74;87.25
8705;BME280;4389;41.932;25.904;2023-05-03T01:54:20;101112.97;;;9.73;88.50
8705;BME280;4389;41.932;25.904;2023-05-03T01:56:47;101119.66;;;9.66;88.12
8705;BME280;4389;41.932;25.904;2023-05-03T01:59:15;101110.22;;;9.75;88.42
8705;BME280;4389;41.932;25.904;2023-05-03T02:01:42;101114.13;;;9.69;88.07
8705;BME280;4389;41.932;25.904;2023-05-03T02:04:09;101100.47;;;9.75;88.63
8705;BME280;4389;41.932;25.904;2023-05-03T02:06:36;101097.09;;;9.73;88.26
8705;BME280;4389;41.932;25.904;2023-05-03T02:09:03;101090.84;;;9.63;89.21
8705;BME280;4389;41.932;25.904;2023-05-03T02:11:29;101098.53;;;9.66;89.54
8705;BME280;4389;41.932;25.904;2023-05-03T02:13:56;101116.41;;;9.63;89.69
8705;BME280;4389;41.932;25.904;2023-05-03T02:16:24;101114.72;;;9.62;89.54
8705;BME280;4389;41.932;25.904;2023-05-03T02:18:52;101116.72;;;9.82;88.34
8705;BME280;4389;41.932;25.904;2023-05-03T02:21:18;101111.81;;;9.88;88.00
8705;BME280;4389;41.932;25.904;2023-05-03T02:23:45;101108.34;;;9.99;87.09
8705;BME280;4389;41.932;25.904;2023-05-03T02:26:12;101107.06;;;10.04;86.37
8705;BME280;4389;41.932;25.904;2023-05-03T02:28:39;101110.91;;;10.11;85.47
8705;BME280;4389;41.932;25.904;2023-05-03T02:31:06;101114.50;;;9.99;86.70
8705;BME280;4389;41.932;25.904;2023-05-03T02:33:34;101113.94;;;9.83;86.48
8705;BME280;4389;41.932;25.904;2023-05-03T02:36:01;101116.09;;;9.78;87.99
8705;BME280;4389;41.932;25.904;2023-05-03T02:38:27;101114.44;;;9.77;88.12
8705;BME280;4389;41.932;25.904;2023-05-03T02:40:54;101113.50;;;9.66;88.53
8705;BME280;4389;41.932;25.904;2023-05-03T02:43:21;101114.25;;;9.68;88.71
8705;BME280;4389;41.932;25.904;2023-05-03T02:45:48;101117.34;;;9.85;87.54
8705;BME280;4389;41.932;25.904;2023-05-03T02:48:15;101121.22;;;9.69;87.12
8705;BME280;4389;41.932;25.904;2023-05-03T02:50:43;101128.53;;;9.65;87.79
8705;BME280;4389;41.932;25.904;2023-05-03T02:53:10;101132.41;;;9.72;87.83
8705;BME280;4389;41.932;25.904;2023-05-03T02:55:37;101132.56;;;9.82;86.59
8705;BME280;4389;41.932;25.904;2023-05-03T02:58:04;101128.81;;;9.73;87.28
8705;BME280;4389;41.932;25.904;2023-05-03T03:00:30;101138.59;;;9.84;87.27
8705;BME280;4389;41.932;25.904;2023-05-03T03:02:57;101138.69;;;9.82;86.98
8705;BME280;4389;41.932;25.904;2023-05-03T03:05:24;101140.16;;;9.86;86.88
8705;BME280;4389;41.932;25.904;2023-05-03T03:07:52;101141.59;;;9.90;87.61
8705;BME280;4389;41.932;25.904;2023-05-03T03:10:19;101137.09;;;10.03;86.62
8705;BME280;4389;41.932;25.904;2023-05-03T03:12:46;101147.00;;;10.12;85.35
8705;BME280;4389;41.932;25.904;2023-05-03T03:15:13;101149.28;;;10.17;85.39
8705;BME280;4389;41.932;25.904;2023-05-03T03:17:40;101146.53;;;10.29;84.53
8705;BME280;4389;41.932;25.904;2023-05-03T03:20:08;101146.78;;;10.37;84.61
8705;BME280;4389;41.932;25.904;2023-05-03T03:22:36;101141.97;;;10.31;84.92
8705;BME280;4389;41.932;25.904;2023-05-03T03:25:05;101130.44;;;10.43;84.86
8705;BME280;4389;41.932;25.904;2023-05-03T03:27:32;101122.03;;;10.38;85.87
8705;BME280;4389;41.932;25.904;2023-05-03T03:29:59;101116.97;;;10.35;86.74
8705;BME280;4389;41.932;25.904;2023-05-03T03:32:26;101127.19;;;10.51;84.97
8705;BME280;4389;41.932;25.904;2023-05-03T03:34:53;101122.75;;;10.29;85.26
8705;BME280;4389;41.932;25.904;2023-05-03T03:37:20;101127.09;;;10.41;85.82
8705;BME280;4389;41.932;25.904;2023-05-03T03:39:47;101119.59;;;10.24;84.70
8705;BME280;4389;41.932;25.904;2023-05-03T03:42:15;101126.09;;;10.31;84.66
8705;BME280;4389;41.932;25.904;2023-05-03T03:44:43;101122.75;;;10.40;84.33
8705;BME280;4389;41.932;25.904;2023-05-03T03:47:09;101123.00;;;10.48;84.51
8705;BME280;4389;41.932;25.904;2023-05-03T03:49:36;101137.69;;;10.41;85.48
8705;BME280;4389;41.932;25.904;2023-05-03T03:52:03;101155.59;;;10.49;85.22
8705;BME280;4389;41.932;25.904;2023-05-03T03:54:30;101145.25;;;10.57;84.76
8705;BME280;4389;41.932;25.904;2023-05-03T03:56:59;101155.47;;;10.61;83.55
8705;BME280;4389;41.932;25.904;2023-05-03T03:59:28;101146.09;;;10.68;83.80
8705;BME280;4389;41.932;25.904;2023-05-03T04:01:55;101152.34;;;10.56;83.85
8705;BME280;4389;41.932;25.904;2023-05-03T04:04:22;101172.31;;;10.60;84.52
8705;BME280;4389;41.932;25.904;2023-05-03T04:06:49;101172.53;;;10.46;84.39
8705;BME280;4389;41.932;25.904;2023-05-03T04:09:16;101183.13;;;10.46;84.82
8705;BME280;4389;41.932;25.904;2023-05-03T04:11:43;101205.75;;;10.50;84.69
8705;BME280;4389;41.932;25.904;2023-05-03T04:14:10;101208.88;;;10.66;84.19
8705;BME280;4389;41.932;25.904;2023-05-03T04:16:38;101239.56;;;10.69;83.43
8705;BME280;4389;41.932;25.904;2023-05-03T04:19:05;101245.44;;;10.61;84.88
8705;BME280;4389;41.932;25.904;2023-05-03T04:21:32;101251.84;;;10.59;85.34
8705;BME280;4389;41.932;25.904;2023-05-03T04:23:58;101261.41;;;10.49;84.78
8705;BME280;4389;41.932;25.904;2023-05-03T04:26:29;101256.50;;;10.55;85.87
8705;BME280;4389;41.932;25.904;2023-05-03T04:28:56;101259.63;;;10.60;85.52
8705;BME280;4389;41.932;25.904;2023-05-03T04:31:23;101248.44;;;10.57;84.17
8705;BME280;4389;41.932;25.904;2023-05-03T04:33:52;101261.13;;;10.86;85.56
8705;BME280;4389;41.932;25.904;2023-05-03T04:36:19;101251.16;;;10.90;87.08
8705;BME280;4389;41.932;25.904;2023-05-03T04:38:50;101254.38;;;10.82;85.42
8705;BME280;4389;41.932;25.904;2023-05-03T04:41:17;101244.88;;;10.69;85.64
8705;BME280;4389;41.932;25.904;2023-05-03T04:43:45;101234.53;;;10.77;87.17
8705;BME280;4389;41.932;25.904;2023-05-03T04:46:11;101229.00;;;10.80;87.22
8705;BME280;4389;41.932;25.904;2023-05-03T04:48:38;101230.41;;;10.62;88.61
8705;BME280;4389;41.932;25.904;2023-05-03T04:51:06;101224.50;;;10.58;88.71
8705;BME280;4389;41.932;25.904;2023-05-03T04:53:33;101223.06;;;10.54;89.56
8705;BME280;4389;41.932;25.904;2023-05-03T04:56:00;101215.50;;;10.61;90.71
8705;BME280;4389;41.932;25.904;2023-05-03T04:58:26;101214.41;;;10.52;90.61
8705;BME280;4389;41.932;25.904;2023-05-03T05:00:53;101221.63;;;10.50;90.95
8705;BME280;4389;41.932;25.904;2023-05-03T05:03:20;101218.75;;;10.64;91.98
8705;BME280;4389;41.932;25.904;2023-05-03T05:05:47;101223.81;;;10.67;92.04
8705;BME280;4389;41.932;25.904;2023-05-03T05:08:15;101225.97;;;10.62;89.65
8705;BME280;4389;41.932;25.904;2023-05-03T05:10:45;101228.88;;;10.70;91.20
8705;BME280;4389;41.932;25.904;2023-05-03T05:13:12;101223.81;;;10.89;91.58
8705;BME280;4389;41.932;25.904;2023-05-03T05:15:39;101233.19;;;10.82;91.37
8705;BME280;4389;41.932;25.904;2023-05-03T05:18:05;101227.44;;;10.88;89.34
8705;BME280;4389;41.932;25.904;2023-05-03T05:20:33;101231.78;;;11.00;89.86
8705;BME280;4389;41.932;25.904;2023-05-03T05:23:00;101236.09;;;11.01;90.37
8705;BME280;4389;41.932;25.904;2023-05-03T05:25:28;101241.78;;;10.97;90.31
8705;BME280;4389;41.932;25.904;2023-05-03T05:27:55;101256.31;;;11.24;89.68
8705;BME280;4389;41.932;25.904;2023-05-03T05:30:23;101258.97;;;11.35;89.87
8705;BME280;4389;41.932;25.904;2023-05-03T05:32:50;101263.31;;;11.47;87.94
8705;BME280;4389;41.932;25.904;2023-05-03T05:35:16;101276.91;;;11.65;85.66
8705;BME280;4389;41.932;25.904;2023-05-03T05:37:43;101280.16;;;11.68;85.38
8705;BME280;4389;41.932;25.904;2023-05-03T05:40:11;101286.91;;;11.83;84.07
8705;BME280;4389;41.932;25.904;2023-05-03T05:42:39;101286.63;;;11.86;85.62
8705;BME280;4389;41.932;25.904;2023-05-03T05:45:07;101288.91;;;11.91;84.92
8705;BME280;4389;41.932;25.904;2023-05-03T05:47:34;101292.38;;;12.02;84.58
8705;BME280;4389;41.932;25.904;2023-05-03T05:50:00;101276.06;;;12.18;84.91
8705;BME280;4389;41.932;25.904;2023-05-03T05:52:28;101278.31;;;12.22;85.21
8705;BME280;4389;41.932;25.904;2023-05-03T05:54:55;101275.19;;;12.17;85.70
8705;BME280;4389;41.932;25.904;2023-05-03T05:57:21;101268.72;;;12.10;85.78
8705;BME280;4389;41.932;25.904;2023-05-03T05:59:49;101268.56;;;11.91;88.01
8705;BME280;4389;41.932;25.904;2023-05-03T06:02:17;101278.78;;;11.96;89.10
8705;BME280;4389;41.932;25.904;2023-05-03T06:04:47;101280.72;;;11.94;90.42
8705;BME280;4389;41.932;25.904;2023-05-03T06:07:14;101272.41;;;11.87;90.83
8705;BME280;4389;41.932;25.904;2023-05-03T06:09:41;101285.59;;;12.09;90.62
8705;BME280;4389;41.932;25.904;2023-05-03T06:12:08;101289.88;;;12.01;91.02
8705;BME280;4389;41.932;25.904;2023-05-03T06:14:35;101293.13;;;12.04;90.27
8705;BME280;4389;41.932;25.904;2023-05-03T06:17:04;101297.28;;;12.18;90.01
8705;BME280;4389;41.932;25.904;2023-05-03T06:19:30;101295.41;;;12.29;89.50
8705;BME280;4389;41.932;25.904;2023-05-03T06:21:57;101294.06;;;12.35;90.71
8705;BME280;4389;41.932;25.904;2023-05-03T06:24:24;101297.44;;;12.68;89.84
8705;BME280;4389;41.932;25.904;2023-05-03T06:26:55;101297.78;;;12.43;87.76
8705;BME280;4389;41.932;25.904;2023-05-03T06:29:23;101286.59;;;12.81;86.12
8705;BME280;4389;41.932;25.904;2023-05-03T06:31:50;101279.41;;;12.92;86.76
8705;BME280;4389;41.932;25.904;2023-05-03T06:34:19;101275.47;;;12.87;86.25
8705;BME280;4389;41.932;25.904;2023-05-03T06:36:46;101259.09;;;12.61;86.59
8705;BME280;4389;41.932;25.904;2023-05-03T06:39:13;101258.34;;;12.39;88.27
8705;BME280;4389;41.932;25.904;2023-05-03T06:41:40;101255.66;;;12.18;88.05
8705;BME280;4389;41.932;25.904;2023-05-03T06:44:07;101268.72;;;12.10;90.79
8705;BME280;4389;41.932;25.904;2023-05-03T06:46:34;101275.28;;;12.27;91.61
8705;BME280;4389;41.932;25.904;2023-05-03T06:49:01;101271.84;;;12.15;90.31
8705;BME280;4389;41.932;25.904;2023-05-03T06:51:29;101273.41;;;12.38;88.66
8705;BME280;4389;41.932;25.904;2023-05-03T06:53:58;101264.91;;;12.55;89.08
8705;BME280;4389;41.932;25.904;2023-05-03T06:56:31;101262.66;;;12.51;90.24
8705;BME280;4389;41.932;25.904;2023-05-03T06:58:58;101245.13;;;12.69;87.93
8705;BME280;4389;41.932;25.904;2023-05-03T07:01:25;101245.50;;;12.85;86.50
8705;BME280;4389;41.932;25.904;2023-05-03T07:03:52;101242.31;;;13.41;86.42
8705;BME280;4389;41.932;25.904;2023-05-03T07:06:18;101243.13;;;14.00;84.65
8705;BME280;4389;41.932;25.904;2023-05-03T07:08:49;101236.88;;;14.20;81.73
8705;BME280;4389;41.932;25.904;2023-05-03T07:11:16;101237.97;;;14.27;80.95
8705;BME280;4389;41.932;25.904;2023-05-03T07:13:43;101240.25;;;14.87;79.50
8705;BME280;4389;41.932;25.904;2023-05-03T07:16:10;101234.97;;;15.14;77.92
8705;BME280;4389;41.932;25.904;2023-05-03T07:18:37;101236.81;;;15.13;77.37
8705;BME280;4389;41.932;25.904;2023-05-03T07:21:04;101245.31;;;14.90;74.21
8705;BME280;4389;41.932;25.904;2023-05-03T07:23:31;101230.16;;;14.81;74.90
8705;BME280;4389;41.932;25.904;2023-05-03T07:25:59;101223.19;;;15.16;74.31
8705;BME280;4389;41.932;25.904;2023-05-03T07:28:26;101224.72;;;15.19;74.23
8705;BME280;4389;41.932;25.904;2023-05-03T07:30:53;101223.16;;;15.26;73.20
8705;BME280;4389;41.932;25.904;2023-05-03T07:33:20;101213.16;;;15.28;73.61
8705;BME280;4389;41.932;25.904;2023-05-03T07:35:47;101203.53;;;15.54;75.42
8705;BME280;4389;41.932;25.904;2023-05-03T07:38:15;101217.69;;;14.91;77.47
8705;BME280;4389;41.932;25.904;2023-05-03T07:40:42;101220.75;;;14.96;72.69
8705;BME280;4389;41.932;25.904;2023-05-03T07:43:10;101228.38;;;14.72;74.20
8705;BME280;4389;41.932;25.904;2023-05-03T07:45:37;101228.06;;;15.21;74.27
8705;BME280;4389;41.932;25.904;2023-05-03T07:48:04;101232.81;;;15.27;71.82
8705;BME280;4389;41.932;25.904;2023-05-03T07:50:32;101223.84;;;15.28;70.98
8705;BME280;4389;41.932;25.904;2023-05-03T07:52:58;101209.13;;;15.51;69.42
8705;BME280;4389;41.932;25.904;2023-05-03T07:55:25;101207.03;;;15.72;67.72
8705;BME280;4389;41.932;25.904;2023-05-03T07:57:53;101195.56;;;15.89;67.77
8705;BME280;4389;41.932;25.904;2023-05-03T08:00:25;101201.97;;;15.96;63.98
8705;BME280;4389;41.932;25.904;2023-05-03T08:02:52;101191.63;;;16.36;64.23
8705;BME280;4389;41.932;25.904;2023-05-03T08:05:19;101193.03;;;16.40;67.22
8705;BME280;4389;41.932;25.904;2023-05-03T08:07:46;101193.59;;;16.34;66.67
8705;BME280;4389;41.932;25.904;2023-05-03T08:10:12;101183.91;;;16.76;65.11
8705;BME280;4389;41.932;25.904;2023-05-03T08:12:40;101184.34;;;16.89;62.29
8705;BME280;4389;41.932;25.904;2023-05-03T08:15:07;101185.78;;;17.09;59.92
8705;BME280;4389;41.932;25.904;2023-05-03T08:17:40;101165.03;;;17.03;60.92
8705;BME280;4389;41.932;25.904;2023-05-03T08:20:08;101165.19;;;17.09;62.08
8705;BME280;4389;41.932;25.904;2023-05-03T08:22:35;101155.50;;;16.75;61.27
8705;BME280;4389;41.932;25.904;2023-05-03T08:25:02;101162.13;;;16.63;60.06
8705;BME280;4389;41.932;25.904;2023-05-03T08:27:30;101162.59;;;16.92;59.58
8705;BME280;4389;41.932;25.904;2023-05-03T08:29:57;101169.13;;;16.64;58.03
8705;BME280;4389;41.932;25.904;2023-05-03T08:32:26;101177.50;;;16.94;56.80
8705;BME280;4389;41.932;25.904;2023-05-03T08:34:55;101173.81;;;16.95;59.24
8705;BME280;4389;41.932;25.904;2023-05-03T08:37:22;101167.00;;;17.01;58.44
8705;BME280;4389;41.932;25.904;2023-05-03T08:39:49;101157.03;;;17.11;57.18
8705;BME280;4389;41.932;25.904;2023-05-03T08:42:16;101155.91;;;17.29;53.84
8705;BME280;4389;41.932;25.904;2023-05-03T08:44:45;101161.72;;;17.09;56.67
8705;BME280;4389;41.932;25.904;2023-05-03T08:47:14;101159.06;;;17.17;56.42
8705;BME280;4389;41.932;25.904;2023-05-03T08:49:42;101166.34;;;17.07;51.52
8705;BME280;4389;41.932;25.904;2023-05-03T08:52:11;101152.75;;;17.34;52.44
8705;BME280;4389;41.932;25.904;2023-05-03T08:54:40;101153.84;;;17.57;49.16
8705;BME280;4389;41.932;25.904;2023-05-03T08:57:09;101146.81;;;17.56;47.14
8705;BME280;4389;41.932;25.904;2023-05-03T08:59:45;101153.03;;;17.56;48.56
8705;BME280;4389;41.932;25.904;2023-05-03T09:02:13;101158.41;;;17.88;47.99
8705;BME280;4389;41.932;25.904;2023-05-03T09:04:40;101152.25;;;18.36;47.21
8705;BME280;4389;41.932;25.904;2023-05-03T09:07:08;101149.19;;;18.63;47.85
8705;BME280;4389;41.932;25.904;2023-05-03T09:09:37;101147.81;;;18.75;48.37
8705;BME280;4389;41.932;25.904;2023-05-03T09:12:04;101156.22;;;18.80;47.67
8705;BME280;4389;41.932;25.904;2023-05-03T09:14:41;101149.13;;;18.94;45.96
8705;BME280;4389;41.932;25.904;2023-05-03T09:17:17;101146.00;;;19.21;46.21
8705;BME280;4389;41.932;25.904;2023-05-03T09:19:52;101148.66;;;19.21;50.08
8705;BME280;4389;41.932;25.904;2023-05-03T09:22:22;101149.69;;;19.51;47.74
8705;BME280;4389;41.932;25.904;2023-05-03T09:24:54;101152.53;;;20.02;45.61
8705;BME280;4389;41.932;25.904;2023-05-03T09:27:22;101148.78;;;20.48;45.62
8705;BME280;4389;41.932;25.904;2023-05-03T09:29:50;101160.94;;;20.44;44.79
8705;BME280;4389;41.932;25.904;2023-05-03T09:32:17;101164.44;;;20.45;44.93
8705;BME280;4389;41.932;25.904;2023-05-03T09:34:44;101149.66;;;20.26;46.24
8705;BME280;4389;41.932;25.904;2023-05-03T09:37:11;101144.28;;;20.78;44.80
8705;BME280;4389;41.932;25.904;2023-05-03T09:39:40;101144.81;;;21.46;44.11
8705;BME280;4389;41.932;25.904;2023-05-03T09:42:13;101155.25;;;21.20;43.24
8705;BME280;4389;41.932;25.904;2023-05-03T09:44:41;101155.97;;;20.85;43.01
8705;BME280;4389;41.932;25.904;2023-05-03T09:47:09;101162.59;;;21.11;42.99
8705;BME280;4389;41.932;25.904;2023-05-03T09:49:36;101159.81;;;21.69;41.43
8705;BME280;4389;41.932;25.904;2023-05-03T09:52:04;101146.78;;;22.15;41.18
8705;BME280;4389;41.932;25.904;2023-05-03T09:54:32;101157.53;;;21.37;41.39
8705;BME280;4389;41.932;25.904;2023-05-03T09:57:00;101162.38;;;20.32;42.70
8705;BME280;4389;41.932;25.904;2023-05-03T09:59:30;101170.59;;;20.39;42.52
8705;BME280;4389;41.932;25.904;2023-05-03T10:01:59;101176.22;;;20.29;42.05
8705;BME280;4389;41.932;25.904;2023-05-03T10:04:27;101180.97;;;20.19;41.74
8705;BME280;4389;41.932;25.904;2023-05-03T10:06:58;101190.53;;;20.22;41.88
8705;BME280;4389;41.932;25.904;2023-05-03T10:09:31;101188.63;;;20.08;42.50
8705;BME280;4389;41.932;25.904;2023-05-03T10:12:00;101197.34;;;20.10;43.03
8705;BME280;4389;41.932;25.904;2023-05-03T10:14:31;101189.59;;;19.84;44.31
8705;BME280;4389;41.932;25.904;2023-05-03T10:17:01;101177.72;;;19.48;46.24
8705;BME280;4389;41.932;25.904;2023-05-03T10:19:33;101173.56;;;19.46;46.53
8705;BME280;4389;41.932;25.904;2023-05-03T10:22:05;101175.50;;;19.29;48.07
8705;BME280;4389;41.932;25.904;2023-05-03T10:24:33;101162.88;;;18.83;51.94
8705;BME280;4389;41.932;25.904;2023-05-03T10:27:00;101152.16;;;18.83;51.18
8705;BME280;4389;41.932;25.904;2023-05-03T10:29:47;101143.63;;;18.80;49.83
8705;BME280;4389;41.932;25.904;2023-05-03T10:32:33;101139.84;;;18.51;56.12
8705;BME280;4389;41.932;25.904;2023-05-03T10:35:02;101134.19;;;18.38;56.98
8705;BME280;4389;41.932;25.904;2023-05-03T10:37:31;101136.84;;;17.90;58.10
8705;BME280;4389;41.932;25.904;2023-05-03T10:40:05;101154.91;;;17.96;57.54
8705;BME280;4389;41.932;25.904;2023-05-03T10:42:32;101139.50;;;17.90;63.45
8705;BME280;4389;41.932;25.904;2023-05-03T10:45:00;101132.16;;;17.92;63.79
8705;BME280;4389;41.932;25.904;2023-05-03T10:47:28;101117.44;;;17.96;62.06
8705;BME280;4389;41.932;25.904;2023-05-03T10:50:23;101117.41;;;18.04;66.68
8705;BME280;4389;41.932;25.904;2023-05-03T10:52:50;101110.72;;;18.32;73.73
8705;BME280;4389;41.932;25.904;2023-05-03T10:55:18;101109.38;;;18.04;74.37
8705;BME280;4389;41.932;25.904;2023-05-03T10:57:47;101096.97;;;17.71;73.27
8705;BME280;4389;41.932;25.904;2023-05-03T11:00:22;101081.94;;;17.86;73.41
8705;BME280;4389;41.932;25.904;2023-05-03T11:03:08;101087.94;;;17.72;74.92
8705;BME280;4389;41.932;25.904;2023-05-03T11:05:38;101103.19;;;17.55;73.20
8705;BME280;4389;41.932;25.904;2023-05-03T11:08:12;101092.31;;;17.73;75.26
8705;BME280;4389;41.932;25.904;2023-05-03T11:10:39;101119.59;;;18.00;73.33
8705;BME280;4389;41.932;25.904;2023-05-03T11:13:06;101131.63;;;17.88;70.79
8705;BME280;4389;41.932;25.904;2023-05-03T11:15:34;101153.16;;;17.47;74.29
8705;BME280;4389;41.932;25.904;2023-05-03T11:18:01;101150.22;;;17.32;76.25
8705;BME280;4389;41.932;25.904;2023-05-03T11:20:28;101145.94;;;17.39;74.84
8705;BME280;4389;41.932;25.904;2023-05-03T11:22:55;101153.19;;;17.55;74.44
8705;BME280;4389;41.932;25.904;2023-05-03T11:25:22;101157.88;;;17.53;74.47
8705;BME280;4389;41.932;25.904;2023-05-03T11:27:49;101161.88;;;17.65;76.22
8705;BME280;4389;41.932;25.904;2023-05-03T11:30:16;101161.94;;;17.73;76.16
8705;BME280;4389;41.932;25.904;2023-05-03T11:32:45;101154.56;;;17.99;73.58
8705;BME280;4389;41.932;25.904;2023-05-03T11:35:13;101148.69;;;17.63;72.98
8705;BME280;4389;41.932;25.904;2023-05-03T11:37:42;101133.13;;;17.67;72.11
8705;BME280;4389;41.932;25.904;2023-05-03T11:40:13;101128.97;;;17.96;72.32
8705;BME280;4389;41.932;25.904;2023-05-03T11:42:51;101125.78;;;17.77;72.14
8705;BME280;4389;41.932;25.904;2023-05-03T11:45:19;101106.88;;;17.62;72.21
8705;BME280;4389;41.932;25.904;2023-05-03T11:47:48;101095.81;;;17.49;74.73
8705;BME280;4389;41.932;25.904;2023-05-03T11:50:15;101089.59;;;17.57;73.28
8705;BME280;4389;41.932;25.904;2023-05-03T11:52:43;101088.28;;;17.93;69.71
8705;BME280;4389;41.932;25.904;2023-05-03T11:55:10;101085.22;;;18.52;67.96
8705;BME280;4389;41.932;25.904;2023-05-03T11:57:37;101083.88;;;18.48;66.78
8705;BME280;4389;41.932;25.904;2023-05-03T12:00:11;101088.91;;;18.59;63.39
8705;BME280;4389;41.932;25.904;2023-05-03T12:02:42;101090.25;;;18.47;62.07
8705;BME280;4389;41.932;25.904;2023-05-03T12:05:11;101071.75;;;18.68;62.85
8705;BME280;4389;41.932;25.904;2023-05-03T12:07:39;101066.09;;;18.55;63.32
8705;BME280;4389;41.932;25.904;2023-05-03T12:10:14;101067.81;;;18.48;60.20
8705;BME280;4389;41.932;25.904;2023-05-03T12:12:53;101059.06;;;18.54;60.64
8705;BME280;4389;41.932;25.904;2023-05-03T12:15:28;101045.34;;;18.49;61.30
8705;BME280;4389;41.932;25.904;2023-05-03T12:17:56;101042.72;;;18.33;57.98
8705;BME280;4389;41.932;25.904;2023-05-03T12:20:26;101043.84;;;18.84;60.47
8705;BME280;4389;41.932;25.904;2023-05-03T12:22:56;101043.94;;;19.37;62.26
8705;BME280;4389;41.932;25.904;2023-05-03T12:25:23;101050.28;;;20.18;56.39
8705;BME280;4389;41.932;25.904;2023-05-03T12:27:51;101042.44;;;20.46;55.29
8705;BME280;4389;41.932;25.904;2023-05-03T12:30:19;101041.28;;;20.84;55.08
8705;BME280;4389;41.932;25.904;2023-05-03T12:32:46;101046.78;;;20.61;55.79
8705;BME280;4389;41.932;25.904;2023-05-03T12:35:13;101050.88;;;20.57;55.58
8705;BME280;4389;41.932;25.904;2023-05-03T12:37:42;101044.28;;;20.45;53.72
8705;BME280;4389;41.932;25.904;2023-05-03T12:40:09;101032.13;;;20.06;54.74
8705;BME280;4389;41.932;25.904;2023-05-03T12:42:36;101031.69;;;19.94;56.12
8705;BME280;4389;41.932;25.904;2023-05-03T12:45:04;101027.06;;;19.88;55.16
8705;BME280;4389;41.932;25.904;2023-05-03T12:47:32;101019.16;;;20.09;56.59
8705;BME280;4389;41.932;25.904;2023-05-03T12:49:59;101007.53;;;19.57;56.55
8705;BME280;4389;41.932;25.904;2023-05-03T12:52:27;101001.22;;;19.50;58.67
8705;BME280;4389;41.932;25.904;2023-05-03T12:54:56;100991.63;;;19.03;59.32
8705;BME280;4389;41.932;25.904;2023-05-03T12:57:22;100980.56;;;19.28;59.28
8705;BME280;4389;41.932;25.904;2023-05-03T12:59:49;100977.38;;;19.33;60.50
8705;BME280;4389;41.932;25.904;2023-05-03T13:02:18;100981.81;;;19.77;59.87
8705;BME280;4389;41.932;25.904;2023-05-03T13:04:46;100968.25;;;20.08;57.99
8705;BME280;4389;41.932;25.904;2023-05-03T13:07:14;100967.50;;;20.43;56.63